createdAt,value
2018-09-04T00:00:03.738Z,80.32
2018-09-04T00:02:32.129Z,80.46
2018-09-04T00:05:00.470Z,81.40
2018-09-04T00:07:28.771Z,81.64
2018-09-04T00:09:57.120Z,81.77
2018-09-04T00:12:25.486Z,82.22
2018-09-04T00:14:53.784Z,82.42
2018-09-04T00:17:22.127Z,82.12
2018-09-04T00:19:50.507Z,82.98
2018-09-04T00:22:18.853Z,82.65
2018-09-04T00:24:47.196Z,83.21
2018-09-04T00:27:15.839Z,82.62
2018-09-04T00:29:44.198Z,83.36
2018-09-04T00:32:12.552Z,83.83
2018-09-04T00:34:40.932Z,83.36
2018-09-04T00:37:09.292Z,83.92
2018-09-04T00:39:37.620Z,84.67
2018-09-04T00:42:06.351Z,84.96
2018-09-04T00:44:34.679Z,85.30
2018-09-04T00:47:03.340Z,84.79
2018-09-04T00:49:31.687Z,84.83
2018-09-04T00:52:00.017Z,85.61
2018-09-04T00:54:28.674Z,85.80
2018-09-04T00:56:57.259Z,85.38
2018-09-04T00:59:25.644Z,85.46
2018-09-04T01:01:53.990Z,85.77
2018-09-04T01:04:22.618Z,85.99
2018-09-04T01:06:50.956Z,85.85
2018-09-04T01:09:21.248Z,86.39
2018-09-04T01:11:49.636Z,87.23
2018-09-04T01:14:18.038Z,86.62
2018-09-04T01:16:46.491Z,86.95
2018-09-04T01:19:15.088Z,87.33
2018-09-04T01:21:43.431Z,87.64
2018-09-04T01:24:12.236Z,88.38
2018-09-04T01:26:40.912Z,88.21
2018-09-04T01:29:09.257Z,88.83
2018-09-04T01:31:37.545Z,89.61
2018-09-04T01:34:05.961Z,89.99
2018-09-04T01:36:34.437Z,90.01
2018-09-04T01:39:02.854Z,91.02
2018-09-04T01:41:31.194Z,91.13
2018-09-04T01:43:59.666Z,90.68
2018-09-04T01:46:28.099Z,91.73
2018-09-04T01:48:56.440Z,91.28
2018-09-04T01:51:24.807Z,92.15
2018-09-04T01:53:53.186Z,91.67
2018-09-04T01:56:21.540Z,91.83
2018-09-04T01:58:49.852Z,91.49
2018-09-04T02:01:18.525Z,91.92
2018-09-04T02:03:46.937Z,92.47
2018-09-04T02:06:15.334Z,92.04
2018-09-04T02:08:43.652Z,91.90
2018-09-04T02:11:12.426Z,93.21
2018-09-04T02:13:40.795Z,93.29
2018-09-04T02:16:09.145Z,93.36
2018-09-04T02:18:37.820Z,93.39
2018-09-04T02:21:06.260Z,93.59
2018-09-04T02:23:34.643Z,94.88
2018-09-04T02:26:03.002Z,95.52
2018-09-04T02:28:31.342Z,95.82
2018-09-04T02:30:59.712Z,96.23
2018-09-04T02:33:28.031Z,95.57
2018-09-04T02:35:56.344Z,96.22
2018-09-04T02:38:24.738Z,96.23
2018-09-04T02:40:53.122Z,96.02
2018-09-04T02:43:21.433Z,95.98
2018-09-04T02:45:49.773Z,95.93
2018-09-04T02:48:18.110Z,96.32
2018-09-04T02:50:46.492Z,97.01
2018-09-04T02:53:14.780Z,97.01
2018-09-04T02:55:43.096Z,95.97
2018-09-04T02:58:11.455Z,96.72
2018-09-04T03:00:39.814Z,96.99
2018-09-04T03:03:08.121Z,97.70
2018-09-04T03:05:36.458Z,97.07
2018-09-04T03:08:04.813Z,98.05
2018-09-04T03:10:33.208Z,97.58
2018-09-04T03:13:01.554Z,98.66
2018-09-04T03:15:29.910Z,98.06
2018-09-04T03:17:58.290Z,98.57
2018-09-04T03:20:26.641Z,98.07
2018-09-04T03:22:55.007Z,98.45
2018-09-04T03:25:23.318Z,98.60
2018-09-04T03:27:51.589Z,98.72
2018-09-04T03:30:20.184Z,98.83
2018-09-04T03:32:48.557Z,99.71
2018-09-04T03:35:16.920Z,99.15
2018-09-04T03:37:45.374Z,99.79
2018-09-04T03:40:13.705Z,99.82
2018-09-04T03:42:42.092Z,99.91
2018-09-04T03:45:10.971Z,100.00
2018-09-04T03:47:39.320Z,100.00
2018-09-04T03:50:08.290Z,100.00
2018-09-04T03:52:36.841Z,100.00
2018-09-04T03:55:05.277Z,100.00
2018-09-04T03:57:33.626Z,100.00
2018-09-04T04:00:01.936Z,100.00
2018-09-04T04:02:30.299Z,100.00
2018-09-04T04:04:58.605Z,100.00
2018-09-04T04:07:26.996Z,100.00
2018-09-04T04:09:55.340Z,100.00
2018-09-04T04:12:23.772Z,100.00
2018-09-04T04:14:52.102Z,100.00
2018-09-04T04:17:20.571Z,100.00
2018-09-04T04:19:48.973Z,100.00
2018-09-04T04:22:17.349Z,100.00
2018-09-04T04:24:45.683Z,100.00
2018-09-04T04:27:14.129Z,100.00
2018-09-04T04:29:42.479Z,100.00
2018-09-04T04:32:10.844Z,100.00
2018-09-04T04:34:39.291Z,100.00
2018-09-04T04:37:07.646Z,100.00
2018-09-04T04:39:35.966Z,100.00
2018-09-04T04:42:04.384Z,100.00
2018-09-04T04:44:32.747Z,100.00
2018-09-04T04:47:01.065Z,100.00
2018-09-04T04:49:29.382Z,100.00
2018-09-04T04:51:57.730Z,100.00
2018-09-04T04:54:26.116Z,100.00
2018-09-04T04:56:54.450Z,100.00
2018-09-04T04:59:22.795Z,100.00
2018-09-04T05:01:51.194Z,100.00
2018-09-04T05:04:19.537Z,100.00
2018-09-04T05:06:48.262Z,100.00
2018-09-04T05:09:16.644Z,100.00
2018-09-04T05:11:45.057Z,100.00
2018-09-04T05:14:13.439Z,100.00
2018-09-04T05:16:41.786Z,100.00
2018-09-04T05:19:10.113Z,100.00
2018-09-04T05:21:38.538Z,100.00
2018-09-04T05:24:06.991Z,100.00
2018-09-04T05:26:35.397Z,100.00
2018-09-04T05:29:04.220Z,100.00
2018-09-04T05:31:37.055Z,100.00
2018-09-04T05:34:05.827Z,100.00
2018-09-04T05:36:34.368Z,100.00
2018-09-04T05:39:02.693Z,100.00
2018-09-04T05:41:31.337Z,100.00
2018-09-04T05:44:01.035Z,100.00
2018-09-04T05:46:42.079Z,100.00
2018-09-04T05:49:10.917Z,100.00
2018-09-04T05:51:39.496Z,100.00
2018-09-04T05:54:07.986Z,100.00
2018-09-04T05:56:36.432Z,100.00
2018-09-04T05:59:04.814Z,100.00
2018-09-04T06:01:33.217Z,98.24
2018-09-04T06:04:01.534Z,97.21
2018-09-04T06:06:29.905Z,98.47
2018-09-04T06:08:58.378Z,98.24
2018-09-04T06:11:26.724Z,98.82
2018-09-04T06:13:55.055Z,98.27
2018-09-04T06:16:23.386Z,98.36
2018-09-04T06:18:51.673Z,98.20
2018-09-04T06:21:20.195Z,97.50
2018-09-04T06:23:48.537Z,97.65
2018-09-04T06:26:16.924Z,97.50
2018-09-04T06:28:45.543Z,97.28
2018-09-04T06:31:13.916Z,96.76
2018-09-04T06:33:42.245Z,95.65
2018-09-04T06:36:10.599Z,95.02
2018-09-04T06:38:39.003Z,95.71
2018-09-04T06:41:07.407Z,95.50
2018-09-04T06:43:35.953Z,95.24
2018-09-04T06:46:04.697Z,94.75
2018-09-04T06:48:33.043Z,94.50
2018-09-04T06:51:01.349Z,94.17
2018-09-04T06:53:29.708Z,94.32
2018-09-04T06:55:58.082Z,95.04
2018-09-04T06:58:26.471Z,95.02
2018-09-04T07:00:54.840Z,94.68
2018-09-04T07:03:23.159Z,94.12
2018-09-04T07:05:51.509Z,93.21
2018-09-04T07:08:19.896Z,93.46
2018-09-04T07:10:48.442Z,93.06
2018-09-04T07:13:16.766Z,92.27
2018-09-04T07:15:45.102Z,93.12
2018-09-04T07:18:13.430Z,92.00
2018-09-04T07:20:41.945Z,91.78
2018-09-04T07:23:10.310Z,91.23
2018-09-04T07:25:38.712Z,89.06
2018-09-04T07:28:06.992Z,88.37
2018-09-04T07:30:35.583Z,87.57
2018-09-04T07:33:03.924Z,87.54
2018-09-04T07:35:32.284Z,87.73
2018-09-04T07:38:00.620Z,86.25
2018-09-04T07:40:29.291Z,85.73
2018-09-04T07:42:57.986Z,85.43
2018-09-04T07:45:26.335Z,84.44
2018-09-04T07:47:54.739Z,84.27
2018-09-04T07:50:23.296Z,83.96
2018-09-04T07:52:51.843Z,82.76
2018-09-04T07:55:20.159Z,81.68
2018-09-04T07:57:48.471Z,77.93
2018-09-04T08:00:16.794Z,75.30
2018-09-04T08:02:45.155Z,73.93
2018-09-04T08:05:13.568Z,71.37
2018-09-04T08:07:41.879Z,70.21
2018-09-04T08:10:10.265Z,68.69
2018-09-04T08:12:38.790Z,66.19
2018-09-04T08:15:07.216Z,67.98
2018-09-04T08:17:35.572Z,66.50
2018-09-04T08:20:03.948Z,66.89
2018-09-04T08:22:32.252Z,65.42
2018-09-04T08:25:00.600Z,64.26
2018-09-04T08:27:28.911Z,66.06
2018-09-04T08:29:57.480Z,68.42
2018-09-04T08:32:25.787Z,67.34
2018-09-04T08:34:54.108Z,67.78
2018-09-04T08:37:22.640Z,67.60
2018-09-04T08:39:50.976Z,68.30
2018-09-04T08:42:19.298Z,68.35
2018-09-04T08:44:49.941Z,68.00
2018-09-04T08:47:18.726Z,68.68
2018-09-04T08:49:46.954Z,69.37
2018-09-04T08:52:15.310Z,68.38
2018-09-04T08:54:43.777Z,69.04
2018-09-04T08:57:12.178Z,69.76
2018-09-04T08:59:40.598Z,69.40
2018-09-04T09:02:08.936Z,68.89
2018-09-04T09:04:37.498Z,69.17
2018-09-04T09:07:06.428Z,69.05
2018-09-04T09:09:34.773Z,68.44
2018-09-04T09:12:03.203Z,67.36
2018-09-04T09:14:31.604Z,67.58
2018-09-04T09:16:59.991Z,66.38
2018-09-04T09:19:28.443Z,68.44
2018-09-04T09:21:56.817Z,67.09
2018-09-04T09:24:25.178Z,66.86
2018-09-04T09:26:54.460Z,66.95
2018-09-04T09:29:22.879Z,67.27
2018-09-04T09:31:51.256Z,67.61
2018-09-04T09:34:19.589Z,67.97
2018-09-04T09:36:48.108Z,68.13
2018-09-04T09:39:16.289Z,68.45
2018-09-04T09:41:44.653Z,69.40
2018-09-04T09:44:13.045Z,70.71
2018-09-04T09:46:41.382Z,69.70
2018-09-04T09:49:09.760Z,70.53
2018-09-04T09:51:38.120Z,68.79
2018-09-04T09:54:06.514Z,69.42
2018-09-04T09:56:34.831Z,70.52
2018-09-04T09:59:03.201Z,71.02
2018-09-04T10:01:36.614Z,71.29
2018-09-04T10:04:06.703Z,71.72
2018-09-04T10:06:34.893Z,71.78
2018-09-04T10:09:03.862Z,70.99
2018-09-04T10:11:32.369Z,69.95
2018-09-04T10:14:00.783Z,69.82
2018-09-04T10:16:29.205Z,69.26
2018-09-04T10:18:57.520Z,69.38
2018-09-04T10:21:25.927Z,70.05
2018-09-04T10:23:54.193Z,68.86
2018-09-04T10:26:22.573Z,69.57
2018-09-04T10:28:50.910Z,67.77
2018-09-04T10:31:19.252Z,68.30
2018-09-04T10:33:47.595Z,70.02
2018-09-04T10:36:16.001Z,69.58
2018-09-04T10:38:44.268Z,67.33
2018-09-04T10:41:13.719Z,67.86
2018-09-04T10:43:42.185Z,67.54
2018-09-04T10:46:15.059Z,68.27
2018-09-04T10:48:43.822Z,67.23
2018-09-04T10:51:12.302Z,66.79
2018-09-04T10:53:40.623Z,67.11
2018-09-04T10:56:09.236Z,66.90
2018-09-04T10:58:37.556Z,67.79
2018-09-04T11:01:05.993Z,66.76
2018-09-04T11:03:34.324Z,65.62
2018-09-04T11:06:02.722Z,65.49
2018-09-04T11:08:31.063Z,65.71
2018-09-04T11:10:59.831Z,65.74
2018-09-04T11:13:28.175Z,65.95
2018-09-04T11:15:56.739Z,66.48
2018-09-04T11:18:25.407Z,66.72
2018-09-04T11:20:53.780Z,67.37
2018-09-04T11:23:23.448Z,67.72
2018-09-04T11:25:51.956Z,68.68
2018-09-04T11:28:20.352Z,68.25
2018-09-04T11:30:48.856Z,67.77
2018-09-04T11:33:17.196Z,68.17
2018-09-04T11:35:45.555Z,68.01
2018-09-04T11:38:13.896Z,67.52
2018-09-04T11:40:42.316Z,67.17
2018-09-04T11:43:10.615Z,67.89
2018-09-04T11:45:38.941Z,67.03
2018-09-04T11:48:07.279Z,67.32
2018-09-04T11:50:35.615Z,67.37
2018-09-04T11:53:03.915Z,66.89
2018-09-04T11:55:32.312Z,66.78
2018-09-04T11:58:00.642Z,66.23
2018-09-04T12:00:38.743Z,65.81
2018-09-04T12:03:07.966Z,65.78
2018-09-04T12:05:36.287Z,65.35
2018-09-04T12:08:04.597Z,65.47
2018-09-04T12:10:32.920Z,65.09
2018-09-04T12:13:01.529Z,63.78
2018-09-04T12:15:29.872Z,64.47
2018-09-04T12:17:58.327Z,64.38
2018-09-04T12:20:33.008Z,64.80
2018-09-04T12:23:01.313Z,64.33
2018-09-04T12:25:29.659Z,65.40
2018-09-04T12:27:57.978Z,65.09
2018-09-04T12:30:26.264Z,64.61
2018-09-04T12:32:54.886Z,63.88
2018-09-04T12:35:23.188Z,63.88
2018-09-04T12:37:51.489Z,64.60
2018-09-04T12:40:19.796Z,63.33
2018-09-04T12:42:48.156Z,62.94
2018-09-04T12:45:16.464Z,62.48
2018-09-04T12:47:44.752Z,61.80
2018-09-04T12:50:13.056Z,62.80
2018-09-04T12:52:41.655Z,61.84
2018-09-04T12:55:09.990Z,61.65
2018-09-04T12:57:38.297Z,59.07
2018-09-04T13:00:07.126Z,58.45
2018-09-04T13:02:35.467Z,60.05
2018-09-04T13:05:03.808Z,59.54
2018-09-04T13:07:32.088Z,60.45
2018-09-04T13:10:00.391Z,58.65
2018-09-04T13:12:28.701Z,59.26
2018-09-04T13:14:57.317Z,59.55
2018-09-04T13:17:25.780Z,59.29
2018-09-04T13:19:54.109Z,58.54
2018-09-04T13:22:22.459Z,58.30
2018-09-04T13:24:50.802Z,57.89
2018-09-04T13:27:19.127Z,56.62
2018-09-04T13:29:47.498Z,56.82
2018-09-04T13:32:15.779Z,56.25
2018-09-04T13:34:44.213Z,56.51
2018-09-04T13:37:12.851Z,55.53
2018-09-04T13:39:41.685Z,55.82
2018-09-04T13:42:10.072Z,56.85
2018-09-04T13:44:38.381Z,57.35
2018-09-04T13:47:06.684Z,56.64
2018-09-04T13:49:35.125Z,56.25
2018-09-04T13:52:03.412Z,56.35
2018-09-04T13:54:31.937Z,55.40
2018-09-04T13:57:00.886Z,56.19
2018-09-04T13:59:29.365Z,56.22
2018-09-04T14:01:58.190Z,55.14
2018-09-04T14:04:26.692Z,53.86
2018-09-04T14:06:55.129Z,54.71
2018-09-04T14:09:23.571Z,55.08
2018-09-04T14:11:52.267Z,54.42
2018-09-04T14:14:21.368Z,54.15
2018-09-04T14:16:49.867Z,53.57
2018-09-04T14:19:18.363Z,53.32
2018-09-04T14:21:47.004Z,51.12
2018-09-04T14:24:15.427Z,50.53
2018-09-04T14:26:43.994Z,49.40
2018-09-04T14:29:53.155Z,50.23
2018-09-04T14:31:41.044Z,50.15
2018-09-04T14:34:09.450Z,51.72
2018-09-04T14:36:38.635Z,51.50
2018-09-04T14:39:07.308Z,50.57
2018-09-04T14:41:36.037Z,48.32
2018-09-04T14:44:04.694Z,49.17
2018-09-04T14:46:33.440Z,48.60
2018-09-04T14:49:01.856Z,49.06
2018-09-04T14:51:30.462Z,49.24
2018-09-04T14:53:59.093Z,48.39
2018-09-04T14:56:27.488Z,47.97
2018-09-04T14:58:56.352Z,47.83
2018-09-04T15:01:24.796Z,47.83
2018-09-04T15:03:53.167Z,48.53
2018-09-04T15:06:21.554Z,48.70
2018-09-04T15:08:49.968Z,48.71
2018-09-04T15:11:18.332Z,49.45
2018-09-04T15:13:46.916Z,49.84
2018-09-04T15:16:15.405Z,49.66
2018-09-04T15:18:44.134Z,50.26
2018-09-04T15:21:12.832Z,49.90
2018-09-04T15:23:41.937Z,48.97
2018-09-04T15:26:10.544Z,48.87
2018-09-04T15:28:39.036Z,48.68
2018-09-04T15:31:07.505Z,47.96
2018-09-04T15:33:36.262Z,48.81
2018-09-04T15:36:05.093Z,47.81
2018-09-04T15:38:33.796Z,47.33
2018-09-04T15:41:02.660Z,46.98
2018-09-04T15:43:31.163Z,45.87
2018-09-04T15:45:59.733Z,46.58
2018-09-04T15:48:28.613Z,45.98
2018-09-04T15:50:57.044Z,45.67
2018-09-04T15:53:25.870Z,44.71
2018-09-04T15:55:54.585Z,45.39
2018-09-04T15:58:23.304Z,45.63
2018-09-04T16:00:52.287Z,46.04
2018-09-04T16:03:20.819Z,44.78
2018-09-04T16:05:49.573Z,46.16
2018-09-04T16:08:18.037Z,44.73
2018-09-04T16:10:46.516Z,45.64
2018-09-04T16:13:15.385Z,44.69
2018-09-04T16:15:43.840Z,44.87
2018-09-04T16:18:12.548Z,44.32
2018-09-04T16:20:41.351Z,44.49
2018-09-04T16:23:10.367Z,43.40
2018-09-04T16:25:38.956Z,43.60
2018-09-04T16:28:07.420Z,42.75
2018-09-04T16:30:36.372Z,44.85
2018-09-04T16:33:05.420Z,45.43
2018-09-04T16:35:34.582Z,45.66
2018-09-04T16:38:03.387Z,46.68
2018-09-04T16:40:32.189Z,46.80
2018-09-04T16:43:00.626Z,46.52
2018-09-04T16:45:29.910Z,46.69
2018-09-04T16:47:58.959Z,48.53
2018-09-04T16:50:27.796Z,48.14
2018-09-04T16:52:56.656Z,48.78
2018-09-04T16:55:26.081Z,49.64
2018-09-04T16:57:54.850Z,50.04
2018-09-04T17:00:23.445Z,50.40
2018-09-04T17:02:52.130Z,50.93
2018-09-04T17:05:21.135Z,50.73
2018-09-04T17:07:49.707Z,50.80
2018-09-04T17:10:18.408Z,50.67
2018-09-04T17:12:46.977Z,51.92
2018-09-04T17:15:15.476Z,52.07
2018-09-04T17:17:43.917Z,53.44
2018-09-04T17:20:14.608Z,53.67
2018-09-04T17:22:43.060Z,53.78
2018-09-04T17:25:11.752Z,54.05
2018-09-04T17:27:40.391Z,55.06
2018-09-04T17:30:09.824Z,55.06
2018-09-04T17:32:38.616Z,55.37
2018-09-04T17:35:07.623Z,55.34
2018-09-04T17:37:36.388Z,55.51
2018-09-04T17:40:05.175Z,55.88
2018-09-04T17:42:34.070Z,55.57
2018-09-04T17:45:02.893Z,56.08
2018-09-04T17:47:31.647Z,55.96
2018-09-04T17:50:01.438Z,56.19
2018-09-04T17:52:30.072Z,56.82
2018-09-04T17:54:59.038Z,56.60
2018-09-04T17:57:28.035Z,57.07
2018-09-04T17:59:56.903Z,57.13
2018-09-04T18:02:25.840Z,57.28
2018-09-04T18:04:54.660Z,57.93
2018-09-04T18:07:23.870Z,57.91
2018-09-04T18:09:52.483Z,57.62
2018-09-04T18:12:20.999Z,58.67
2018-09-04T18:14:50.024Z,58.61
2018-09-04T18:17:19.252Z,58.81
2018-09-04T18:19:48.538Z,59.18
2018-09-04T18:22:17.327Z,58.60
2018-09-04T18:24:46.037Z,59.67
2018-09-04T18:27:14.958Z,60.77
2018-09-04T18:29:44.328Z,60.25
2018-09-04T18:32:13.092Z,61.00
2018-09-04T18:34:41.767Z,61.60
2018-09-04T18:37:10.706Z,60.90
2018-09-04T18:39:39.241Z,61.07
2018-09-04T18:42:07.979Z,62.13
2018-09-04T18:44:37.315Z,62.36
2018-09-04T18:47:07.341Z,62.48
2018-09-04T18:49:36.145Z,62.18
2018-09-04T18:52:05.039Z,62.60
2018-09-04T18:54:34.060Z,63.53
2018-09-04T18:57:03.203Z,63.91
2018-09-04T18:59:32.313Z,64.19
2018-09-04T19:02:01.094Z,64.56
2018-09-04T19:04:29.939Z,64.81
2018-09-04T19:06:58.493Z,65.31
2018-09-04T19:09:27.559Z,65.79
2018-09-04T19:11:56.463Z,66.11
2018-09-04T19:14:25.042Z,65.92
2018-09-04T19:16:53.927Z,66.16
2018-09-04T19:19:22.340Z,65.84
2018-09-04T19:21:50.975Z,65.37
2018-09-04T19:24:19.664Z,66.47
2018-09-04T19:26:48.341Z,66.45
2018-09-04T19:29:16.804Z,66.49
2018-09-04T19:31:45.374Z,66.38
2018-09-04T19:34:13.939Z,66.13
2018-09-04T19:36:42.344Z,66.43
2018-09-04T19:39:11.529Z,66.34
2018-09-04T19:41:40.043Z,66.28
2018-09-04T19:44:08.523Z,66.21
2018-09-04T19:46:36.897Z,65.88
2018-09-04T19:49:05.579Z,65.83
2018-09-04T19:51:34.143Z,65.64
2018-09-04T19:54:02.697Z,65.52
2018-09-04T19:56:31.146Z,65.25
2018-09-04T19:58:59.894Z,65.71
2018-09-04T20:01:28.340Z,65.83
2018-09-04T20:03:57.199Z,65.80
2018-09-04T20:06:25.825Z,66.26
2018-09-04T20:08:54.483Z,66.67
2018-09-04T20:11:23.111Z,66.72
2018-09-04T20:13:52.348Z,66.76
2018-09-04T20:16:21.397Z,66.66
2018-09-04T20:18:49.894Z,67.26
2018-09-04T20:21:18.295Z,67.55
2018-09-04T20:23:47.308Z,68.31
2018-09-04T20:26:16.192Z,68.39
2018-09-04T20:28:45.035Z,68.96
2018-09-04T20:31:14.530Z,68.88
2018-09-04T20:33:43.218Z,69.38
2018-09-04T20:36:11.909Z,69.77
2018-09-04T20:38:40.505Z,70.39
2018-09-04T20:41:09.103Z,69.69
2018-09-04T20:43:37.701Z,70.29
2018-09-04T20:46:06.466Z,70.41
2018-09-04T20:48:35.354Z,70.39
2018-09-04T20:51:04.033Z,71.35
2018-09-04T20:53:32.711Z,71.62
2018-09-04T20:56:01.193Z,71.08
2018-09-04T20:58:40.668Z,71.79
2018-09-04T21:01:20.358Z,71.33
2018-09-04T21:04:00.010Z,71.48
2018-09-04T21:06:39.876Z,71.61
2018-09-04T21:09:39.606Z,71.09
2018-09-04T21:12:08.751Z,71.26
2018-09-04T21:14:38.088Z,71.77
2018-09-04T21:17:06.962Z,71.23
2018-09-04T21:19:35.652Z,71.98
2018-09-04T21:22:05.371Z,71.86
2018-09-04T21:24:33.893Z,70.91
2018-09-04T21:27:02.368Z,71.45
2018-09-04T21:29:30.892Z,71.03
2018-09-04T21:31:59.479Z,71.59
2018-09-04T21:34:28.363Z,71.13
2018-09-04T21:36:56.881Z,71.13
2018-09-04T21:39:25.299Z,71.70
2018-09-04T21:41:53.694Z,71.42
2018-09-04T21:44:22.100Z,72.20
2018-09-04T21:46:50.542Z,72.31
2018-09-04T21:49:19.056Z,71.89
2018-09-04T21:51:47.600Z,72.22
2018-09-04T21:54:16.297Z,72.81
2018-09-04T21:56:44.767Z,72.25
2018-09-04T21:59:13.218Z,72.84
2018-09-04T22:01:41.654Z,72.16
2018-09-04T22:04:10.244Z,72.69
2018-09-04T22:06:38.740Z,72.66
2018-09-04T22:09:07.995Z,73.01
2018-09-04T22:11:36.601Z,72.75
2018-09-04T22:14:06.020Z,72.61
2018-09-04T22:16:34.924Z,72.40
2018-09-04T22:19:03.802Z,72.63
2018-09-04T22:21:32.564Z,72.42
2018-09-04T22:24:01.319Z,72.53
2018-09-04T22:26:29.968Z,72.31
2018-09-04T22:28:58.819Z,72.52
2018-09-04T22:31:27.619Z,71.85
2018-09-04T22:33:56.189Z,72.56
2018-09-04T22:36:24.768Z,71.98
2018-09-04T22:38:53.294Z,72.67
2018-09-04T22:41:21.800Z,72.72
2018-09-04T22:43:50.352Z,71.85
2018-09-04T22:46:19.226Z,71.97
2018-09-04T22:48:47.923Z,73.02
2018-09-04T22:51:22.031Z,73.19
2018-09-04T22:53:50.596Z,72.79
2018-09-04T22:56:19.056Z,73.13
2018-09-04T22:58:47.512Z,73.30
2018-09-04T23:01:16.141Z,73.53
2018-09-04T23:03:45.566Z,73.18
2018-09-04T23:06:14.122Z,72.89
2018-09-04T23:08:42.860Z,73.16
2018-09-04T23:11:11.545Z,73.71
2018-09-04T23:13:40.384Z,73.45
2018-09-04T23:16:09.048Z,74.10
2018-09-04T23:18:37.752Z,74.25
2018-09-04T23:21:06.239Z,74.34
2018-09-04T23:23:34.787Z,74.42
2018-09-04T23:26:03.210Z,73.75
2018-09-04T23:28:32.180Z,73.57
2018-09-04T23:31:01.283Z,73.93
2018-09-04T23:33:30.797Z,73.54
2018-09-04T23:35:59.343Z,74.44
2018-09-04T23:38:27.927Z,73.84
2018-09-04T23:40:56.830Z,74.39
2018-09-04T23:43:25.508Z,74.12
2018-09-04T23:45:54.247Z,74.31
2018-09-04T23:48:22.707Z,74.57
2018-09-04T23:50:51.259Z,74.61
2018-09-04T23:53:19.738Z,74.02
2018-09-04T23:55:48.573Z,74.66
2018-09-04T23:58:17.256Z,74.79
